sensor_id;sensor_type;location;lat;lon;timestamp;pressure;altitude;pressure_sealevel;temperature;humidity
72330;BME280;69154;52.076;5.110;2023-05-16T00:02:11;102051.38;;;4.21;36.82
72330;BME280;69154;52.076;5.110;2023-05-16T00:04:36;102056.09;;;6.15;36.42
72330;BME280;69154;52.076;5.110;2023-05-16T00:07:02;102054.54;;;5.93;36.38
72330;BME280;69154;52.076;5.110;2023-05-16T00:09:27;102056.23;;;5.08;36.45
72330;BME280;69154;52.076;5.110;2023-05-16T00:11:53;102049.49;;;6.79;35.15
72330;BME280;69154;52.076;5.110;2023-05-16T00:14:17;102056.06;;;5.63;35.80
72330;BME280;69154;52.076;5.110;2023-05-16T00:16:43;102052.02;;;5.95;35.89
72330;BME280;69154;52.076;5.110;2023-05-16T00:19:08;102054.75;;;5.40;35.32
72330;BME280;69154;52.076;5.110;2023-05-16T00:21:33;102055.65;;;5.72;35.21
72330;BME280;69154;52.076;5.110;2023-05-16T00:23:59;102052.70;;;5.90;35.01
72330;BME280;69154;52.076;5.110;2023-05-16T00:26:24;102057.15;;;6.31;34.54
72330;BME280;69154;52.076;5.110;2023-05-16T00:28:49;102057.49;;;5.59;35.08
72330;BME280;69154;52.076;5.110;2023-05-16T00:31:14;102054.51;;;5.76;34.79
72330;BME280;69154;52.076;5.110;2023-05-16T00:33:40;102059.15;;;6.49;35.40
72330;BME280;69154;52.076;5.110;2023-05-16T00:36:06;102055.84;;;6.09;34.57
72330;BME280;69154;52.076;5.110;2023-05-16T00:38:31;102054.76;;;6.86;34.03
72330;BME280;69154;52.076;5.110;2023-05-16T00:40:57;102056.25;;;6.91;34.09
72330;BME280;69154;52.076;5.110;2023-05-16T00:43:22;102057.75;;;6.07;35.30
72330;BME280;69154;52.076;5.110;2023-05-16T00:45:47;102061.30;;;6.98;34.58
72330;BME280;69154;52.076;5.110;2023-05-16T00:48:13;102061.46;;;6.28;34.04
72330;BME280;69154;52.076;5.110;2023-05-16T00:50:38;102060.26;;;7.85;33.13
72330;BME280;69154;52.076;5.110;2023-05-16T00:53:04;102067.68;;;7.24;32.75
72330;BME280;69154;52.076;5.110;2023-05-16T00:55:29;102063.29;;;7.28;32.63
72330;BME280;69154;52.076;5.110;2023-05-16T00:57:55;102059.18;;;7.83;32.67
72330;BME280;69154;52.076;5.110;2023-05-16T01:00:19;102057.47;;;7.45;32.35
72330;BME280;69154;52.076;5.110;2023-05-16T01:02:45;102056.43;;;6.71;33.64
72330;BME280;69154;52.076;5.110;2023-05-16T01:05:10;102060.79;;;5.69;34.70
72330;BME280;69154;52.076;5.110;2023-05-16T01:07:36;102056.72;;;6.56;33.83
72330;BME280;69154;52.076;5.110;2023-05-16T01:10:02;102054.08;;;6.80;33.12
72330;BME280;69154;52.076;5.110;2023-05-16T01:12:32;102055.23;;;6.45;34.00
72330;BME280;69154;52.076;5.110;2023-05-16T01:14:59;102055.54;;;7.26;33.03
72330;BME280;69154;52.076;5.110;2023-05-16T01:17:24;102058.49;;;6.89;32.50
72330;BME280;69154;52.076;5.110;2023-05-16T01:19:52;102060.95;;;6.07;34.05
72330;BME280;69154;52.076;5.110;2023-05-16T01:22:11;102060.29;;;5.55;34.44
72330;BME280;69154;52.076;5.110;2023-05-16T01:24:47;102061.21;;;6.62;33.72
72330;BME280;69154;52.076;5.110;2023-05-16T01:26:59;102060.88;;;6.26;33.11
72330;BME280;69154;52.076;5.110;2023-05-16T01:29:25;102061.85;;;6.83;33.05
72330;BME280;69154;52.076;5.110;2023-05-16T01:31:50;102062.52;;;7.03;33.06
72330;BME280;69154;52.076;5.110;2023-05-16T01:34:15;102067.39;;;6.62;32.70
72330;BME280;69154;52.076;5.110;2023-05-16T01:36:45;102066.75;;;6.97;33.09
72330;BME280;69154;52.076;5.110;2023-05-16T01:39:11;102063.62;;;6.01;33.95
72330;BME280;69154;52.076;5.110;2023-05-16T01:41:39;102066.14;;;6.98;33.57
72330;BME280;69154;52.076;5.110;2023-05-16T01:43:59;102061.39;;;6.34;33.93
72330;BME280;69154;52.076;5.110;2023-05-16T01:46:25;102058.61;;;6.09;34.50
72330;BME280;69154;52.076;5.110;2023-05-16T01:48:52;102059.96;;;6.74;33.90
72330;BME280;69154;52.076;5.110;2023-05-16T01:51:12;102062.05;;;5.78;33.76
72330;BME280;69154;52.076;5.110;2023-05-16T01:53:38;102068.63;;;6.55;34.36
72330;BME280;69154;52.076;5.110;2023-05-16T01:56:03;102068.45;;;6.30;33.54
72330;BME280;69154;52.076;5.110;2023-05-16T01:58:31;102070.99;;;7.11;32.98
72330;BME280;69154;52.076;5.110;2023-05-16T02:00:59;102072.97;;;6.57;33.61
72330;BME280;69154;52.076;5.110;2023-05-16T02:03:19;102075.43;;;6.01;33.70
72330;BME280;69154;52.076;5.110;2023-05-16T02:05:45;102076.06;;;7.51;32.91
72330;BME280;69154;52.076;5.110;2023-05-16T02:08:10;102083.08;;;6.82;32.53
72330;BME280;69154;52.076;5.110;2023-05-16T02:10:36;102083.46;;;7.10;33.89
72330;BME280;69154;52.076;5.110;2023-05-16T02:13:01;102081.15;;;6.75;32.79
72330;BME280;69154;52.076;5.110;2023-05-16T02:15:26;102084.63;;;6.91;32.88
72330;BME280;69154;52.076;5.110;2023-05-16T02:17:52;102086.01;;;6.24;33.42
72330;BME280;69154;52.076;5.110;2023-05-16T02:20:17;102090.91;;;5.97;33.58
72330;BME280;69154;52.076;5.110;2023-05-16T02:22:42;102089.22;;;7.73;32.49
72330;BME280;69154;52.076;5.110;2023-05-16T02:25:08;102095.05;;;8.38;31.75
72330;BME280;69154;52.076;5.110;2023-05-16T02:27:33;102096.39;;;8.31;31.56
72330;BME280;69154;52.076;5.110;2023-05-16T02:29:59;102095.95;;;8.83;30.94
72330;BME280;69154;52.076;5.110;2023-05-16T02:32:24;102095.01;;;8.61;30.61
72330;BME280;69154;52.076;5.110;2023-05-16T02:34:49;102097.61;;;8.87;31.25
72330;BME280;69154;52.076;5.110;2023-05-16T02:37:14;102098.99;;;9.45;30.14
72330;BME280;69154;52.076;5.110;2023-05-16T02:39:40;102098.90;;;9.43;30.42
72330;BME280;69154;52.076;5.110;2023-05-16T02:42:06;102098.97;;;7.59;31.58
72330;BME280;69154;52.076;5.110;2023-05-16T02:44:31;102099.25;;;8.77;30.38
72330;BME280;69154;52.076;5.110;2023-05-16T02:46:56;102097.95;;;8.87;30.35
72330;BME280;69154;52.076;5.110;2023-05-16T02:49:22;102096.28;;;9.22;29.30
72330;BME280;69154;52.076;5.110;2023-05-16T02:51:47;102096.50;;;9.64;29.38
72330;BME280;69154;52.076;5.110;2023-05-16T02:54:12;102099.87;;;9.04;29.92
72330;BME280;69154;52.076;5.110;2023-05-16T02:56:38;102097.98;;;9.62;29.60
72330;BME280;69154;52.076;5.110;2023-05-16T02:59:03;102098.36;;;9.43;29.47
72330;BME280;69154;52.076;5.110;2023-05-16T03:01:28;102104.14;;;9.81;28.76
72330;BME280;69154;52.076;5.110;2023-05-16T03:03:54;102107.54;;;10.41;28.94
72330;BME280;69154;52.076;5.110;2023-05-16T03:06:19;102111.31;;;8.74;29.36
72330;BME280;69154;52.076;5.110;2023-05-16T03:08:45;102109.26;;;9.75;29.96
72330;BME280;69154;52.076;5.110;2023-05-16T03:11:10;102114.18;;;7.71;30.73
72330;BME280;69154;52.076;5.110;2023-05-16T03:13:35;102114.38;;;8.52;31.07
72330;BME280;69154;52.076;5.110;2023-05-16T03:16:01;102116.93;;;7.94;30.54
72330;BME280;69154;52.076;5.110;2023-05-16T03:18:26;102118.31;;;8.80;30.17
72330;BME280;69154;52.076;5.110;2023-05-16T03:20:52;102121.32;;;8.99;30.33
72330;BME280;69154;52.076;5.110;2023-05-16T03:23:17;102120.05;;;9.53;29.09
72330;BME280;69154;52.076;5.110;2023-05-16T03:25:42;102115.49;;;9.36;29.56
72330;BME280;69154;52.076;5.110;2023-05-16T03:28:07;102117.84;;;9.63;29.44
72330;BME280;69154;52.076;5.110;2023-05-16T03:30:33;102116.94;;;9.49;29.25
72330;BME280;69154;52.076;5.110;2023-05-16T03:32:58;102116.46;;;9.51;28.79
72330;BME280;69154;52.076;5.110;2023-05-16T03:35:24;102118.66;;;10.06;28.70
72330;BME280;69154;52.076;5.110;2023-05-16T03:37:49;102119.11;;;9.64;29.21
72330;BME280;69154;52.076;5.110;2023-05-16T03:40:15;102123.23;;;8.37;29.38
72330;BME280;69154;52.076;5.110;2023-05-16T03:42:40;102127.43;;;9.36;29.52
72330;BME280;69154;52.076;5.110;2023-05-16T03:45:06;102130.27;;;8.48;29.78
72330;BME280;69154;52.076;5.110;2023-05-16T03:47:30;102129.54;;;9.29;30.98
72330;BME280;69154;52.076;5.110;2023-05-16T03:49:55;102132.29;;;9.01;30.04
72330;BME280;69154;52.076;5.110;2023-05-16T03:52:21;102132.71;;;8.84;31.42
72330;BME280;69154;52.076;5.110;2023-05-16T03:54:46;102133.05;;;8.57;30.19
72330;BME280;69154;52.076;5.110;2023-05-16T03:57:11;102136.32;;;8.81;29.76
72330;BME280;69154;52.076;5.110;2023-05-16T03:59:37;102135.16;;;9.73;29.28
72330;BME280;69154;52.076;5.110;2023-05-16T04:02:03;102131.82;;;9.44;28.32
72330;BME280;69154;52.076;5.110;2023-05-16T04:04:28;102136.38;;;8.77;29.95
72330;BME280;69154;52.076;5.110;2023-05-16T04:06:54;102138.14;;;9.68;30.00
72330;BME280;69154;52.076;5.110;2023-05-16T04:09:19;102141.53;;;8.99;29.84
72330;BME280;69154;52.076;5.110;2023-05-16T04:11:44;102142.49;;;8.95;30.56
72330;BME280;69154;52.076;5.110;2023-05-16T04:14:10;102136.49;;;8.68;29.86
72330;BME280;69154;52.076;5.110;2023-05-16T04:16:35;102137.79;;;9.14;30.45
72330;BME280;69154;52.076;5.110;2023-05-16T04:19:00;102137.88;;;9.69;29.64
72330;BME280;69154;52.076;5.110;2023-05-16T04:21:26;102138.21;;;10.28;28.99
72330;BME280;69154;52.076;5.110;2023-05-16T04:23:52;102142.56;;;10.36;29.16
72330;BME280;69154;52.076;5.110;2023-05-16T04:26:17;102147.67;;;9.75;29.35
72330;BME280;69154;52.076;5.110;2023-05-16T04:28:42;102151.09;;;10.64;28.39
72330;BME280;69154;52.076;5.110;2023-05-16T04:31:07;102156.39;;;8.98;29.86
72330;BME280;69154;52.076;5.110;2023-05-16T04:33:33;102156.67;;;10.91;28.33
72330;BME280;69154;52.076;5.110;2023-05-16T04:35:58;102158.88;;;10.41;28.30
72330;BME280;69154;52.076;5.110;2023-05-16T04:38:24;102158.41;;;10.94;28.62
72330;BME280;69154;52.076;5.110;2023-05-16T04:40:49;102161.30;;;10.46;29.36
72330;BME280;69154;52.076;5.110;2023-05-16T04:43:14;102165.68;;;9.49;28.57
72330;BME280;69154;52.076;5.110;2023-05-16T04:45:40;102165.17;;;10.56;28.48
72330;BME280;69154;52.076;5.110;2023-05-16T04:48:05;102166.56;;;10.22;28.42
72330;BME280;69154;52.076;5.110;2023-05-16T04:50:30;102170.76;;;11.17;29.38
72330;BME280;69154;52.076;5.110;2023-05-16T04:52:55;102175.13;;;13.62;26.45
72330;BME280;69154;52.076;5.110;2023-05-16T04:55:20;102178.99;;;14.91;26.00
72330;BME280;69154;52.076;5.110;2023-05-16T04:57:46;102177.86;;;16.00;24.45
72330;BME280;69154;52.076;5.110;2023-05-16T05:00:12;102174.06;;;16.36;23.30
72330;BME280;69154;52.076;5.110;2023-05-16T05:02:37;102174.86;;;17.37;22.18
72330;BME280;69154;52.076;5.110;2023-05-16T05:05:02;102177.75;;;15.52;22.10
72330;BME280;69154;52.076;5.110;2023-05-16T05:07:27;102177.81;;;14.75;22.51
72330;BME280;69154;52.076;5.110;2023-05-16T05:09:53;102178.00;;;16.46;23.11
72330;BME280;69154;52.076;5.110;2023-05-16T05:12:17;102180.34;;;17.76;22.63
72330;BME280;69154;52.076;5.110;2023-05-16T05:14:43;102179.34;;;17.82;22.31
72330;BME280;69154;52.076;5.110;2023-05-16T05:17:08;102178.16;;;18.54;21.67
72330;BME280;69154;52.076;5.110;2023-05-16T05:19:33;102178.28;;;19.65;20.36
72330;BME280;69154;52.076;5.110;2023-05-16T05:21:58;102180.78;;;19.46;20.16
72330;BME280;69154;52.076;5.110;2023-05-16T05:24:23;102179.62;;;19.38;20.05
72330;BME280;69154;52.076;5.110;2023-05-16T05:26:48;102176.59;;;18.45;20.42
72330;BME280;69154;52.076;5.110;2023-05-16T05:29:13;102173.30;;;17.71;20.17
72330;BME280;69154;52.076;5.110;2023-05-16T05:31:38;102176.35;;;18.52;20.85
72330;BME280;69154;52.076;5.110;2023-05-16T05:34:04;102180.55;;;18.20;20.17
72330;BME280;69154;52.076;5.110;2023-05-16T05:36:29;102182.66;;;15.04;22.39
72330;BME280;69154;52.076;5.110;2023-05-16T05:38:54;102186.96;;;14.67;23.35
72330;BME280;69154;52.076;5.110;2023-05-16T05:41:19;102192.38;;;13.14;24.67
72330;BME280;69154;52.076;5.110;2023-05-16T05:43:45;102193.98;;;11.95;26.07
72330;BME280;69154;52.076;5.110;2023-05-16T05:46:10;102197.11;;;11.47;26.38
72330;BME280;69154;52.076;5.110;2023-05-16T05:48:35;102202.84;;;11.26;27.20
72330;BME280;69154;52.076;5.110;2023-05-16T05:51:00;102198.79;;;11.15;27.11
72330;BME280;69154;52.076;5.110;2023-05-16T05:53:25;102200.12;;;12.13;26.60
72330;BME280;69154;52.076;5.110;2023-05-16T05:55:51;102205.32;;;11.27;26.32
72330;BME280;69154;52.076;5.110;2023-05-16T05:58:16;102207.12;;;10.75;27.34
72330;BME280;69154;52.076;5.110;2023-05-16T06:00:41;102199.79;;;11.21;26.98
72330;BME280;69154;52.076;5.110;2023-05-16T06:03:06;102203.16;;;10.16;27.86
72330;BME280;69154;52.076;5.110;2023-05-16T06:05:31;102206.77;;;11.26;27.36
72330;BME280;69154;52.076;5.110;2023-05-16T06:07:57;102204.78;;;10.37;27.55
72330;BME280;69154;52.076;5.110;2023-05-16T06:10:22;102211.42;;;9.63;28.25
72330;BME280;69154;52.076;5.110;2023-05-16T06:12:47;102210.85;;;10.06;28.28
72330;BME280;69154;52.076;5.110;2023-05-16T06:15:13;102215.63;;;9.22;29.11
72330;BME280;69154;52.076;5.110;2023-05-16T06:17:38;102212.21;;;11.31;27.72
72330;BME280;69154;52.076;5.110;2023-05-16T06:20:04;102221.61;;;9.16;28.21
72330;BME280;69154;52.076;5.110;2023-05-16T06:22:28;102222.36;;;9.81;28.39
72330;BME280;69154;52.076;5.110;2023-05-16T06:24:54;102231.60;;;9.32;30.30
72330;BME280;69154;52.076;5.110;2023-05-16T06:27:19;102228.94;;;8.92;29.22
72330;BME280;69154;52.076;5.110;2023-05-16T06:29:44;102229.29;;;8.55;30.38
72330;BME280;69154;52.076;5.110;2023-05-16T06:32:09;102233.57;;;8.29;30.42
72330;BME280;69154;52.076;5.110;2023-05-16T06:34:35;102231.44;;;9.48;29.79
72330;BME280;69154;52.076;5.110;2023-05-16T06:37:00;102232.96;;;9.75;29.50
72330;BME280;69154;52.076;5.110;2023-05-16T06:39:25;102229.99;;;9.69;29.72
72330;BME280;69154;52.076;5.110;2023-05-16T06:41:51;102227.45;;;8.38;30.66
72330;BME280;69154;52.076;5.110;2023-05-16T06:44:16;102237.21;;;8.33;30.13
72330;BME280;69154;52.076;5.110;2023-05-16T06:46:41;102232.95;;;8.85;30.91
72330;BME280;69154;52.076;5.110;2023-05-16T06:49:06;102236.38;;;7.87;31.36
72330;BME280;69154;52.076;5.110;2023-05-16T06:51:32;102233.77;;;8.91;30.89
72330;BME280;69154;52.076;5.110;2023-05-16T06:53:57;102233.93;;;9.21;30.58
72330;BME280;69154;52.076;5.110;2023-05-16T06:56:23;102234.92;;;9.75;29.37
72330;BME280;69154;52.076;5.110;2023-05-16T06:58:48;102233.66;;;9.15;29.43
72330;BME280;69154;52.076;5.110;2023-05-16T07:01:13;102229.80;;;8.74;29.56
72330;BME280;69154;52.076;5.110;2023-05-16T07:03:39;102231.83;;;8.96;29.88
72330;BME280;69154;52.076;5.110;2023-05-16T07:06:04;102231.93;;;8.86;29.99
72330;BME280;69154;52.076;5.110;2023-05-16T07:08:29;102235.28;;;9.58;29.28
72330;BME280;69154;52.076;5.110;2023-05-16T07:10:54;102232.58;;;9.56;29.38
72330;BME280;69154;52.076;5.110;2023-05-16T07:13:20;102231.73;;;8.14;30.35
72330;BME280;69154;52.076;5.110;2023-05-16T07:15:45;102242.85;;;10.19;29.74
72330;BME280;69154;52.076;5.110;2023-05-16T07:18:11;102239.58;;;10.17;27.98
72330;BME280;69154;52.076;5.110;2023-05-16T07:20:36;102237.44;;;13.02;26.97
72330;BME280;69154;52.076;5.110;2023-05-16T07:23:01;102243.70;;;13.33;25.47
72330;BME280;69154;52.076;5.110;2023-05-16T07:25:26;102242.68;;;13.24;25.59
72330;BME280;69154;52.076;5.110;2023-05-16T07:27:52;102244.12;;;12.88;26.06
72330;BME280;69154;52.076;5.110;2023-05-16T07:30:16;102245.98;;;11.03;25.64
72330;BME280;69154;52.076;5.110;2023-05-16T07:32:42;102250.24;;;10.13;27.24
72330;BME280;69154;52.076;5.110;2023-05-16T07:35:07;102255.31;;;9.43;27.86
72330;BME280;69154;52.076;5.110;2023-05-16T07:37:32;102248.65;;;11.48;26.96
72330;BME280;69154;52.076;5.110;2023-05-16T07:39:57;102247.71;;;12.06;25.66
72330;BME280;69154;52.076;5.110;2023-05-16T07:42:22;102253.09;;;9.82;27.59
72330;BME280;69154;52.076;5.110;2023-05-16T07:44:48;102250.87;;;9.67;27.27
72330;BME280;69154;52.076;5.110;2023-05-16T07:47:13;102245.41;;;7.94;28.95
72330;BME280;69154;52.076;5.110;2023-05-16T07:49:38;102252.42;;;9.20;29.05
72330;BME280;69154;52.076;5.110;2023-05-16T07:52:04;102249.97;;;8.98;28.70
72330;BME280;69154;52.076;5.110;2023-05-16T07:54:29;102251.43;;;9.53;28.91
72330;BME280;69154;52.076;5.110;2023-05-16T07:56:54;102247.57;;;9.67;28.60
72330;BME280;69154;52.076;5.110;2023-05-16T07:59:19;102245.10;;;9.39;27.63
72330;BME280;69154;52.076;5.110;2023-05-16T08:01:45;102245.05;;;11.62;26.86
72330;BME280;69154;52.076;5.110;2023-05-16T08:04:10;102259.07;;;10.06;25.98
72330;BME280;69154;52.076;5.110;2023-05-16T08:06:36;102257.18;;;9.15;27.63
72330;BME280;69154;52.076;5.110;2023-05-16T08:09:01;102258.83;;;9.24;28.52
72330;BME280;69154;52.076;5.110;2023-05-16T08:11:27;102265.08;;;10.84;27.83
72330;BME280;69154;52.076;5.110;2023-05-16T08:13:52;102264.72;;;10.88;26.77
72330;BME280;69154;52.076;5.110;2023-05-16T08:16:16;102262.99;;;10.59;26.32
72330;BME280;69154;52.076;5.110;2023-05-16T08:18:42;102264.04;;;10.75;27.34
72330;BME280;69154;52.076;5.110;2023-05-16T08:21:07;102252.76;;;10.76;26.12
72330;BME280;69154;52.076;5.110;2023-05-16T08:23:32;102254.75;;;11.47;25.41
72330;BME280;69154;52.076;5.110;2023-05-16T08:25:57;102257.95;;;12.61;25.39
72330;BME280;69154;52.076;5.110;2023-05-16T08:28:27;102257.94;;;12.57;24.40
72330;BME280;69154;52.076;5.110;2023-05-16T08:30:47;102260.69;;;12.64;25.23
72330;BME280;69154;52.076;5.110;2023-05-16T08:33:13;102257.24;;;10.81;25.96
72330;BME280;69154;52.076;5.110;2023-05-16T08:35:41;102260.93;;;10.06;25.45
72330;BME280;69154;52.076;5.110;2023-05-16T08:38:03;102258.94;;;8.40;27.38
72330;BME280;69154;52.076;5.110;2023-05-16T08:40:28;102255.52;;;10.42;25.97
72330;BME280;69154;52.076;5.110;2023-05-16T08:42:54;102244.09;;;11.78;25.41
72330;BME280;69154;52.076;5.110;2023-05-16T08:45:19;102247.38;;;12.51;24.76
72330;BME280;69154;52.076;5.110;2023-05-16T08:47:44;102254.62;;;13.21;24.72
72330;BME280;69154;52.076;5.110;2023-05-16T08:50:09;102259.76;;;11.54;24.74
72330;BME280;69154;52.076;5.110;2023-05-16T08:52:36;102258.87;;;11.46;24.66
72330;BME280;69154;52.076;5.110;2023-05-16T08:55:02;102261.33;;;12.23;24.76
72330;BME280;69154;52.076;5.110;2023-05-16T08:57:26;102255.31;;;12.14;24.23
72330;BME280;69154;52.076;5.110;2023-05-16T08:59:50;102260.95;;;15.08;22.02
72330;BME280;69154;52.076;5.110;2023-05-16T09:02:15;102256.28;;;13.37;22.93
72330;BME280;69154;52.076;5.110;2023-05-16T09:04:41;102261.16;;;12.96;23.55
72330;BME280;69154;52.076;5.110;2023-05-16T09:07:05;102257.04;;;10.99;24.79
72330;BME280;69154;52.076;5.110;2023-05-16T09:09:30;102257.20;;;10.72;25.89
72330;BME280;69154;52.076;5.110;2023-05-16T09:11:56;102255.78;;;10.98;25.62
72330;BME280;69154;52.076;5.110;2023-05-16T09:14:21;102257.98;;;11.36;24.99
72330;BME280;69154;52.076;5.110;2023-05-16T09:17:02;102254.53;;;13.60;23.93
72330;BME280;69154;52.076;5.110;2023-05-16T09:19:12;102262.13;;;13.25;23.79
72330;BME280;69154;52.076;5.110;2023-05-16T09:21:36;102263.39;;;14.29;23.04
72330;BME280;69154;52.076;5.110;2023-05-16T09:24:02;102261.87;;;13.50;22.30
72330;BME280;69154;52.076;5.110;2023-05-16T09:26:27;102272.87;;;11.96;23.24
72330;BME280;69154;52.076;5.110;2023-05-16T09:28:53;102276.39;;;15.17;23.17
72330;BME280;69154;52.076;5.110;2023-05-16T09:31:19;102272.42;;;16.16;20.90
72330;BME280;69154;52.076;5.110;2023-05-16T09:33:42;102275.22;;;14.25;22.01
72330;BME280;69154;52.076;5.110;2023-05-16T09:36:07;102274.27;;;13.30;22.90
72330;BME280;69154;52.076;5.110;2023-05-16T09:38:32;102279.01;;;14.10;22.55
72330;BME280;69154;52.076;5.110;2023-05-16T09:40:57;102280.67;;;14.71;22.20
72330;BME280;69154;52.076;5.110;2023-05-16T09:43:24;102274.31;;;13.42;22.10
72330;BME280;69154;52.076;5.110;2023-05-16T09:45:48;102280.20;;;12.29;23.80
72330;BME280;69154;52.076;5.110;2023-05-16T09:48:14;102280.20;;;11.34;24.83
72330;BME280;69154;52.076;5.110;2023-05-16T09:50:37;102280.42;;;15.61;22.64
72330;BME280;69154;52.076;5.110;2023-05-16T09:53:03;102282.12;;;18.88;19.89
72330;BME280;69154;52.076;5.110;2023-05-16T09:55:28;102282.39;;;19.25;18.41
72330;BME280;69154;52.076;5.110;2023-05-16T09:57:54;102279.38;;;20.69;17.94
72330;BME280;69154;52.076;5.110;2023-05-16T10:00:20;102275.51;;;17.41;19.23
72330;BME280;69154;52.076;5.110;2023-05-16T10:02:45;102286.00;;;16.29;19.71
72330;BME280;69154;52.076;5.110;2023-05-16T10:05:10;102292.17;;;14.36;20.87
72330;BME280;69154;52.076;5.110;2023-05-16T10:07:36;102287.58;;;15.07;21.24
72330;BME280;69154;52.076;5.110;2023-05-16T10:10:05;102278.40;;;16.27;20.44
72330;BME280;69154;52.076;5.110;2023-05-16T10:12:29;102281.43;;;19.21;18.87
72330;BME280;69154;52.076;5.110;2023-05-16T10:14:51;102280.27;;;18.95;18.41
72330;BME280;69154;52.076;5.110;2023-05-16T10:17:15;102282.39;;;15.97;19.98
72330;BME280;69154;52.076;5.110;2023-05-16T10:19:42;102283.82;;;14.85;20.94
72330;BME280;69154;52.076;5.110;2023-05-16T10:22:06;102282.89;;;12.51;22.41
72330;BME280;69154;52.076;5.110;2023-05-16T10:24:39;102288.25;;;15.19;21.32
72330;BME280;69154;52.076;5.110;2023-05-16T10:26:56;102285.14;;;18.01;19.55
72330;BME280;69154;52.076;5.110;2023-05-16T10:29:21;102281.30;;;16.46;19.66
72330;BME280;69154;52.076;5.110;2023-05-16T10:31:47;102274.12;;;16.68;19.78
72330;BME280;69154;52.076;5.110;2023-05-16T10:34:11;102280.42;;;18.10;18.61
72330;BME280;69154;52.076;5.110;2023-05-16T10:36:37;102272.97;;;17.94;18.88
72330;BME280;69154;52.076;5.110;2023-05-16T10:39:03;102276.40;;;18.06;19.40
72330;BME280;69154;52.076;5.110;2023-05-16T10:41:29;102275.68;;;15.90;19.68
72330;BME280;69154;52.076;5.110;2023-05-16T10:43:55;102274.70;;;16.19;19.63
72330;BME280;69154;52.076;5.110;2023-05-16T10:46:22;102275.27;;;15.67;20.02
72330;BME280;69154;52.076;5.110;2023-05-16T10:48:45;102275.72;;;15.91;19.60
72330;BME280;69154;52.076;5.110;2023-05-16T10:51:43;102271.88;;;17.63;18.32
72330;BME280;69154;52.076;5.110;2023-05-16T10:53:36;102271.33;;;18.13;17.98
72330;BME280;69154;52.076;5.110;2023-05-16T10:56:10;102274.90;;;14.63;20.24
72330;BME280;69154;52.076;5.110;2023-05-16T10:58:39;102280.48;;;14.01;20.88
72330;BME280;69154;52.076;5.110;2023-05-16T11:01:15;102273.54;;;19.37;19.54
72330;BME280;69154;52.076;5.110;2023-05-16T11:03:21;102281.62;;;15.32;19.02
72330;BME280;69154;52.076;5.110;2023-05-16T11:05:42;102278.67;;;16.16;20.33
72330;BME280;69154;52.076;5.110;2023-05-16T11:08:08;102277.95;;;19.13;18.58
72330;BME280;69154;52.076;5.110;2023-05-16T11:10:34;102271.90;;;19.08;17.40
72330;BME280;69154;52.076;5.110;2023-05-16T11:13:02;102266.11;;;18.61;17.12
72330;BME280;69154;52.076;5.110;2023-05-16T11:15:27;102271.60;;;17.28;18.47
72330;BME280;69154;52.076;5.110;2023-05-16T11:18:03;102266.99;;;16.69;19.25
72330;BME280;69154;52.076;5.110;2023-05-16T11:20:25;102274.30;;;15.74;18.92
72330;BME280;69154;52.076;5.110;2023-05-16T11:22:42;102267.04;;;14.17;20.01
72330;BME280;69154;52.076;5.110;2023-05-16T11:25:08;102276.43;;;13.96;20.45
72330;BME280;69154;52.076;5.110;2023-05-16T11:27:34;102269.84;;;15.44;19.91
72330;BME280;69154;52.076;5.110;2023-05-16T11:30:00;102277.15;;;16.32;19.20
72330;BME280;69154;52.076;5.110;2023-05-16T11:32:22;102269.09;;;14.86;19.46
72330;BME280;69154;52.076;5.110;2023-05-16T11:34:48;102276.37;;;16.40;19.77
72330;BME280;69154;52.076;5.110;2023-05-16T11:37:13;102274.14;;;15.14;19.20
72330;BME280;69154;52.076;5.110;2023-05-16T11:39:38;102277.70;;;15.78;19.92
72330;BME280;69154;52.076;5.110;2023-05-16T11:42:03;102285.72;;;15.56;19.96
72330;BME280;69154;52.076;5.110;2023-05-16T11:44:28;102294.25;;;14.62;20.84
72330;BME280;69154;52.076;5.110;2023-05-16T11:46:53;102287.14;;;15.92;20.59
72330;BME280;69154;52.076;5.110;2023-05-16T11:49:18;102290.54;;;16.03;19.70
72330;BME280;69154;52.076;5.110;2023-05-16T11:51:43;102285.76;;;16.54;19.04
72330;BME280;69154;52.076;5.110;2023-05-16T11:54:09;102287.18;;;16.70;19.30
72330;BME280;69154;52.076;5.110;2023-05-16T11:56:34;102283.42;;;16.35;18.74
72330;BME280;69154;52.076;5.110;2023-05-16T11:58:59;102289.85;;;14.78;20.99
72330;BME280;69154;52.076;5.110;2023-05-16T12:01:23;102286.25;;;15.93;20.55
72330;BME280;69154;52.076;5.110;2023-05-16T12:03:54;102285.19;;;13.91;20.85
72330;BME280;69154;52.076;5.110;2023-05-16T12:06:14;102289.29;;;14.63;21.36
72330;BME280;69154;52.076;5.110;2023-05-16T12:08:48;102287.76;;;15.47;20.35
72330;BME280;69154;52.076;5.110;2023-05-16T12:11:05;102285.94;;;15.99;19.99
72330;BME280;69154;52.076;5.110;2023-05-16T12:13:30;102278.20;;;17.81;18.83
72330;BME280;69154;52.076;5.110;2023-05-16T12:15:56;102283.96;;;19.04;19.06
72330;BME280;69154;52.076;5.110;2023-05-16T12:18:22;102283.45;;;19.75;17.09
72330;BME280;69154;52.076;5.110;2023-05-16T12:20:48;102278.22;;;19.00;17.06
72330;BME280;69154;52.076;5.110;2023-05-16T12:23:13;102286.01;;;15.52;19.23
72330;BME280;69154;52.076;5.110;2023-05-16T12:25:44;102289.42;;;14.64;20.27
72330;BME280;69154;52.076;5.110;2023-05-16T12:28:04;102292.60;;;14.30;20.74
72330;BME280;69154;52.076;5.110;2023-05-16T12:30:30;102285.43;;;15.60;20.57
72330;BME280;69154;52.076;5.110;2023-05-16T12:32:55;102285.24;;;17.85;18.84
72330;BME280;69154;52.076;5.110;2023-05-16T12:35:19;102290.14;;;18.44;18.43
72330;BME280;69154;52.076;5.110;2023-05-16T12:37:45;102287.19;;;19.84;17.15
72330;BME280;69154;52.076;5.110;2023-05-16T12:40:11;102284.29;;;22.04;15.10
72330;BME280;69154;52.076;5.110;2023-05-16T12:42:36;102288.22;;;22.46;15.46
72330;BME280;69154;52.076;5.110;2023-05-16T12:45:02;102285.82;;;20.15;15.11